createdAt,value
2022-09-23T04:31:51.570Z,16.77
2022-09-23T04:36:54.240Z,17.17
2022-09-23T04:41:56.822Z,15.23
2022-09-23T04:46:59.485Z,18.80
2022-09-23T04:52:02.859Z,17.43
2022-09-23T04:57:05.978Z,14.50
2022-09-23T05:02:08.618Z,17.00
2022-09-23T05:07:11.727Z,20.50
2022-09-23T05:12:14.375Z,16.53
2022-09-23T05:17:16.992Z,12.43
2022-09-23T05:22:19.648Z,15.57
2022-09-23T05:27:22.631Z,20.03
2022-09-23T05:32:26.326Z,16.57
2022-09-23T05:37:28.993Z,13.30
2022-09-23T05:42:31.995Z,14.80
2022-09-23T05:47:34.797Z,22.97
2022-09-23T05:52:37.415Z,22.93
2022-09-23T05:57:40.049Z,21.50
2022-09-23T06:02:42.827Z,20.00
2022-09-23T06:07:46.080Z,26.37
2022-09-23T06:12:48.959Z,17.30
2022-09-23T06:17:51.598Z,25.70
2022-09-23T06:22:55.651Z,17.63
2022-09-23T06:27:59.123Z,21.40
2022-09-23T06:33:01.965Z,18.73
2022-09-23T06:38:05.615Z,17.70
2022-09-23T06:43:09.350Z,18.50
2022-09-23T06:48:12.079Z,17.00
2022-09-23T06:53:15.128Z,22.70
2022-09-23T06:58:17.775Z,24.50
2022-09-23T07:03:20.547Z,22.83
2022-09-23T07:08:23.893Z,25.77
2022-09-23T07:13:27.400Z,21.53
2022-09-23T07:18:36.665Z,19.63
2022-09-23T07:23:39.679Z,20.60
2022-09-23T07:28:42.632Z,13.00
2022-09-23T07:33:45.397Z,10.43
2022-09-23T07:38:48.388Z,14.63
2022-09-23T07:43:52.709Z,10.53
2022-09-23T07:48:55.860Z,13.93
2022-09-23T07:53:58.538Z,10.67
2022-09-23T07:59:01.810Z,9.53
2022-09-23T08:04:08.015Z,7.37
2022-09-23T08:09:11.054Z,8.67
2022-09-23T08:14:15.434Z,9.77
2022-09-23T08:19:18.431Z,6.40
2022-09-23T08:24:24.190Z,6.97
2022-09-23T08:29:27.659Z,5.63
2022-09-23T08:34:30.493Z,10.57
2022-09-23T08:39:33.241Z,5.67
2022-09-23T08:45:10.418Z,10.03
2022-09-23T08:50:22.911Z,7.87
2022-09-23T08:55:51.765Z,5.90
2022-09-23T09:01:03.351Z,7.10
2022-09-23T09:06:08.951Z,5.30
2022-09-23T09:11:12.916Z,3.53
2022-09-23T09:16:58.404Z,8.23
2022-09-23T09:22:01.721Z,5.80
2022-09-23T09:27:14.750Z,7.77
2022-09-23T09:32:46.278Z,4.30
2022-09-23T09:37:49.092Z,4.57
2022-09-23T09:42:51.976Z,5.27
2022-09-23T09:48:00.981Z,5.87
2022-09-23T09:53:25.557Z,6.70
2022-09-23T09:58:52.439Z,7.60
2022-09-23T10:04:00.981Z,6.90
2022-09-23T10:09:16.843Z,8.03
2022-09-23T10:14:19.574Z,8.47
2022-09-23T10:19:29.621Z,7.20
2022-09-23T10:24:36.328Z,4.63
2022-09-23T10:29:50.265Z,4.97
2022-09-23T10:34:58.184Z,6.10
2022-09-23T10:40:19.963Z,5.57
2022-09-23T10:45:46.174Z,5.70
2022-09-23T10:50:50.784Z,4.10
2022-09-23T10:56:16.314Z,3.73
2022-09-23T11:01:43.273Z,3.13
2022-09-23T11:07:17.217Z,2.93
2022-09-23T11:12:31.298Z,5.37
2022-09-23T11:18:11.100Z,4.00
2022-09-23T11:23:51.235Z,6.30
2022-09-23T11:29:09.326Z,5.93
2022-09-23T11:34:28.806Z,3.63
2022-09-23T11:39:44.069Z,2.80
2022-09-23T11:45:01.255Z,4.93
2022-09-23T11:50:33.210Z,2.57
2022-09-23T11:55:55.474Z,4.43
2022-09-23T12:01:08.116Z,3.87
2022-09-23T12:06:40.114Z,4.60
2022-09-23T12:12:28.960Z,4.47
2022-09-23T12:17:48.750Z,4.13
2022-09-23T12:23:16.798Z,2.97
2022-09-23T12:28:24.563Z,4.20
2022-09-23T12:33:32.479Z,4.10
2022-09-23T12:38:39.133Z,2.73
2022-09-23T12:44:11.958Z,2.30
2022-09-23T12:49:35.971Z,2.20
2022-09-23T12:54:40.036Z,3.23
2022-09-23T12:59:57.709Z,5.13
2022-09-23T13:05:52.424Z,2.30
2022-09-23T13:11:01.963Z,4.37
2022-09-23T13:16:31.256Z,5.37
2022-09-23T13:21:43.009Z,4.00
2022-09-23T13:26:57.468Z,2.47
2022-09-23T13:32:00.994Z,2.60
2022-09-23T13:37:47.567Z,3.67
2022-09-23T13:42:55.658Z,4.57
2022-09-23T13:48:05.966Z,2.53
2022-09-23T13:53:11.725Z,3.90
2022-09-23T13:58:24.052Z,3.07
2022-09-23T14:03:38.225Z,5.07
2022-09-23T14:08:44.624Z,4.50
2022-09-23T14:13:49.117Z,4.27
2022-09-23T14:18:55.737Z,5.93
2022-09-23T14:24:19.463Z,3.07
2022-09-23T14:29:28.967Z,4.07
2022-09-23T14:34:41.985Z,4.27
2022-09-23T14:39:44.662Z,2.87
2022-09-23T14:44:50.606Z,4.30
2022-09-23T14:50:12.167Z,3.57
2022-09-23T14:55:18.137Z,3.70
2022-09-23T15:00:21.383Z,3.27
2022-09-23T15:05:51.667Z,5.97
2022-09-23T15:10:54.931Z,3.83
2022-09-23T15:15:58.709Z,4.77
2022-09-23T15:21:09.259Z,3.97
2022-09-23T15:26:39.529Z,5.33
2022-09-23T15:31:42.736Z,4.97
2022-09-23T15:36:45.966Z,3.70
2022-09-23T15:41:49.233Z,4.07
2022-09-23T15:46:52.229Z,3.47
2022-09-23T15:51:58.156Z,5.23
2022-09-23T15:57:01.364Z,22.87
2022-09-23T16:02:10.522Z,20.27
2022-09-23T16:07:17.028Z,6.27
2022-09-23T16:12:19.710Z,11.73
2022-09-23T16:17:22.547Z,9.80
2022-09-23T16:22:26.633Z,8.33
2022-09-23T16:27:29.350Z,12.97
2022-09-23T16:32:31.977Z,14.10
2022-09-23T16:37:35.295Z,11.10
2022-09-23T16:42:38.367Z,7.90
2022-09-23T16:47:47.564Z,8.03
2022-09-23T16:52:55.481Z,9.30
2022-09-23T16:57:58.365Z,8.27
2022-09-23T17:03:19.853Z,8.73
2022-09-23T17:08:22.557Z,7.90
2022-09-23T17:13:27.170Z,7.93
2022-09-23T17:18:30.035Z,6.80
2022-09-23T17:23:35.153Z,7.60
2022-09-23T17:28:38.127Z,11.13
2022-09-23T17:33:43.964Z,8.60
2022-09-23T17:38:48.204Z,8.47
2022-09-23T17:43:58.693Z,14.40
2022-09-23T17:49:02.241Z,13.50
2022-09-23T17:54:05.174Z,10.30
2022-09-23T17:59:11.851Z,10.47
2022-09-23T18:04:14.790Z,13.07
2022-09-23T18:09:18.163Z,12.67
2022-09-23T18:14:22.701Z,14.80
2022-09-23T18:19:25.807Z,17.57
2022-09-23T18:24:32.205Z,18.77
2022-09-23T18:29:35.490Z,18.30
2022-09-23T18:34:38.325Z,15.20
2022-09-23T18:39:41.337Z,17.83
2022-09-23T18:44:44.118Z,13.73
2022-09-23T18:50:05.460Z,13.37
2022-09-23T18:55:08.539Z,18.90
2022-09-23T19:00:11.719Z,12.17
2022-09-23T19:05:14.852Z,13.07
2022-09-23T19:10:19.294Z,14.67
2022-09-23T19:15:22.004Z,12.80
2022-09-23T19:20:24.936Z,15.00
2022-09-23T19:25:27.643Z,14.87
2022-09-23T19:30:30.355Z,16.20
2022-09-23T19:35:33.533Z,17.17
2022-09-23T19:40:37.308Z,18.20
2022-09-23T19:45:41.195Z,17.53
2022-09-23T19:50:48.454Z,36.40
2022-09-23T19:55:51.223Z,31.93
2022-09-23T20:00:53.987Z,31.50
2022-09-23T20:05:57.456Z,24.50
2022-09-23T20:11:00.183Z,22.07
2022-09-23T20:16:06.499Z,20.83
2022-09-23T20:21:11.538Z,16.20
2022-09-23T20:26:32.762Z,17.80
2022-09-23T20:31:35.573Z,17.90
2022-09-23T20:36:39.554Z,16.13
2022-09-23T20:41:42.521Z,33.73
2022-09-23T20:46:48.768Z,47.20
2022-09-23T20:51:52.099Z,61.27
2022-09-23T20:56:54.742Z,58.67
2022-09-23T21:01:58.561Z,56.77
2022-09-23T21:07:01.377Z,43.27
2022-09-23T21:12:04.317Z,48.60
2022-09-23T21:17:07.200Z,46.23
2022-09-23T21:22:10.497Z,42.10
2022-09-23T21:27:13.192Z,42.80
2022-09-23T21:32:15.839Z,41.63
2022-09-23T21:37:18.457Z,48.93
2022-09-23T21:42:21.283Z,44.70
2022-09-23T21:47:23.899Z,57.77
2022-09-23T21:52:26.498Z,63.10
2022-09-23T21:57:30.682Z,64.17
2022-09-23T22:02:33.830Z,73.77
2022-09-23T22:07:38.138Z,66.90
2022-09-23T22:12:40.797Z,60.70
2022-09-23T22:17:43.436Z,69.50
2022-09-23T22:22:46.051Z,53.57
2022-09-23T22:28:07.311Z,58.90
2022-09-23T22:33:09.930Z,54.80
2022-09-23T22:38:12.550Z,61.57
2022-09-23T22:43:15.224Z,57.23
2022-09-23T22:48:19.866Z,56.33
2022-09-23T22:53:22.795Z,59.60
2022-09-23T22:58:32.490Z,49.70
2022-09-23T23:03:35.790Z,51.93
2022-09-23T23:08:38.807Z,50.70
2022-09-23T23:13:42.049Z,55.70
2022-09-23T23:18:45.484Z,53.97
2022-09-23T23:23:50.400Z,52.90
2022-09-23T23:28:53.784Z,54.50
